Time;durP1;ratioP1;P1;durP2;ratioP2;P2;SDS_P1;SDS_P2;PMS_P1;PMS_P2;Temp;Humidity;BMP_temperature;BMP_pressure;BME280_temperature;BME280_humidity;BME280_pressure;Samples;Min_cycle;Max_cycle;Signal;HPM_P1;HPM_P2
2023/10/10 00:01:43;;;;;;;7.72;4.25;;;;;;;;;;5068457;28;20115;-64
2023/10/10 00:04:11;;;;;;;12.25;4.38;;;;;;;;;;5068245;28;20841;-64
2023/10/10 00:06:38;;;;;;;9.57;4.57;;;;;;;;;;5068848;28;20047;-64
2023/10/10 00:09:11;;;;;;;9.85;4.20;;;;;;;;;;5068267;28;20048;-64
2023/10/10 00:11:48;;;;;;;7.93;4.57;;;;;;;;;;5048775;28;21111;-64
2023/10/10 00:14:18;;;;;;;7.95;3.90;;;;;;;;;;5069418;28;20066;-63
2023/10/10 00:16:47;;;;;;;11.77;3.75;;;;;;;;;;5068856;28;20118;-63
2023/10/10 00:20:16;;;;;;;9.35;3.97;;;;;;;;;;5025439;28;1208338;-63
2023/10/10 00:22:04;;;;;;;11.18;4.35;;;;;;;;;;5056765;28;20050;-63
2023/10/10 00:24:31;;;;;;;7.25;4.22;;;;;;;;;;5070336;28;20040;-63
2023/10/10 00:26:58;;;;;;;10.38;4.28;;;;;;;;;;5070198;28;20032;-64
2023/10/10 00:29:26;;;;;;;8.43;4.53;;;;;;;;;;5069952;28;20095;-64
2023/10/10 00:32:12;;;;;;;11.57;4.93;;;;;;;;;;5067203;28;20043;-63
2023/10/10 00:34:38;;;;;;;9.98;3.92;;;;;;;;;;5069244;28;21072;-63
2023/10/10 00:37:13;;;;;;;10.73;4.32;;;;;;;;;;5069153;28;20036;-63
2023/10/10 00:39:39;;;;;;;8.77;4.32;;;;;;;;;;5069686;28;20104;-63
2023/10/10 00:42:08;;;;;;;10.75;4.95;;;;;;;;;;5068706;28;20047;-63
2023/10/10 00:44:37;;;;;;;8.98;4.28;;;;;;;;;;5070872;28;20032;-64
2023/10/10 00:47:04;;;;;;;11.13;5.00;;;;;;;;;;5072556;27;20031;-63
2023/10/10 00:49:34;;;;;;;9.55;4.25;;;;;;;;;;5071700;28;20041;-63
2023/10/10 00:52:06;;;;;;;10.38;4.18;;;;;;;;;;5069879;28;20771;-64
2023/10/10 00:54:34;;;;;;;9.95;4.50;;;;;;;;;;5070116;28;20035;-63
2023/10/10 00:57:03;;;;;;;8.90;4.60;;;;;;;;;;5071682;28;20035;-63
2023/10/10 00:59:35;;;;;;;9.68;4.53;;;;;;;;;;5071251;28;20027;-63
2023/10/10 01:02:07;;;;;;;9.77;4.60;;;;;;;;;;5072067;28;20305;-63
2023/10/10 01:04:39;;;;;;;9.88;4.38;;;;;;;;;;5072079;28;20038;-63
2023/10/10 01:07:08;;;;;;;8.57;4.43;;;;;;;;;;5071881;28;20044;-64
2023/10/10 01:09:39;;;;;;;10.30;4.47;;;;;;;;;;5073146;28;20035;-64
2023/10/10 01:12:06;;;;;;;8.55;5.22;;;;;;;;;;5072514;28;20024;-64
2023/10/10 01:14:32;;;;;;;8.90;4.47;;;;;;;;;;5072065;28;20104;-64
2023/10/10 01:16:59;;;;;;;9.85;4.82;;;;;;;;;;5072937;28;20039;-64
2023/10/10 01:19:28;;;;;;;10.93;4.88;;;;;;;;;;5073109;28;20131;-64
2023/10/10 01:21:57;;;;;;;10.90;4.85;;;;;;;;;;5073281;28;20236;-63
2023/10/10 01:24:31;;;;;;;9.02;5.30;;;;;;;;;;5055158;28;21801;-64
2023/10/10 01:27:05;;;;;;;11.82;5.05;;;;;;;;;;5072419;28;20041;-64
2023/10/10 01:29:40;;;;;;;8.98;5.28;;;;;;;;;;5072844;28;20028;-63
2023/10/10 01:32:10;;;;;;;11.85;5.38;;;;;;;;;;5072125;27;20035;-64
2023/10/10 01:34:43;;;;;;;9.43;5.38;;;;;;;;;;5071202;28;20028;-63
2023/10/10 01:37:27;;;;;;;11.25;5.03;;;;;;;;;;5072178;28;20102;-63
2023/10/10 01:40:00;;;;;;;9.80;5.15;;;;;;;;;;5072003;27;20035;-63
2023/10/10 01:42:37;;;;;;;10.05;5.70;;;;;;;;;;5072665;28;20039;-63
2023/10/10 01:45:10;;;;;;;9.38;5.30;;;;;;;;;;5071640;28;20035;-63
2023/10/10 01:47:39;;;;;;;11.90;5.30;;;;;;;;;;5071969;28;20078;-64
2023/10/10 01:50:10;;;;;;;8.13;5.47;;;;;;;;;;5072548;28;20036;-63
2023/10/10 01:52:46;;;;;;;14.75;5.78;;;;;;;;;;5072409;28;21264;-64
2023/10/10 01:55:12;;;;;;;9.73;5.85;;;;;;;;;;5071197;28;20112;-64
2023/10/10 01:57:38;;;;;;;10.13;5.28;;;;;;;;;;5070543;27;20028;-64
2023/10/10 02:02:50;;;;;;;14.23;5.25;;;;;;;;;;5071980;28;20035;-64
2023/10/10 02:07:58;;;;;;;11.07;5.70;;;;;;;;;;5071948;28;20043;-64
2023/10/10 02:10:29;;;;;;;12.07;6.18;;;;;;;;;;5070786;28;20036;-63
2023/10/10 02:12:59;;;;;;;10.25;5.72;;;;;;;;;;5071879;28;20129;-63
2023/10/10 02:15:27;;;;;;;13.32;5.88;;;;;;;;;;5071689;28;20024;-64
2023/10/10 02:17:56;;;;;;;8.82;5.97;;;;;;;;;;5070521;28;20071;-63
2023/10/10 02:25:41;;;;;;;15.23;6.38;;;;;;;;;;5071676;27;20031;-63
2023/10/10 02:30:45;;;;;;;11.15;6.30;;;;;;;;;;5071938;28;20050;-63
2023/10/10 02:38:22;;;;;;;14.23;6.15;;;;;;;;;;5071017;28;20126;-63
2023/10/10 02:40:52;;;;;;;11.57;6.75;;;;;;;;;;5071500;28;20763;-63
2023/10/10 02:43:33;;;;;;;11.25;6.53;;;;;;;;;;5071593;28;20054;-63
2023/10/10 02:45:59;;;;;;;9.52;6.30;;;;;;;;;;5071185;28;20628;-63
2023/10/10 02:48:27;;;;;;;11.25;6.22;;;;;;;;;;5071417;28;20047;-63
2023/10/10 02:50:53;;;;;;;10.63;6.28;;;;;;;;;;5071725;28;20028;-64
2023/10/10 02:53:20;;;;;;;12.15;6.93;;;;;;;;;;5069046;28;20031;-63
2023/10/10 02:55:52;;;;;;;13.05;6.07;;;;;;;;;;5068686;28;20036;-63
2023/10/10 02:58:21;;;;;;;11.32;6.10;;;;;;;;;;5069532;28;20024;-65
2023/10/10 03:00:57;;;;;;;10.55;5.70;;;;;;;;;;5071435;28;21244;-64
2023/10/10 03:03:24;;;;;;;9.65;5.95;;;;;;;;;;5068975;28;20027;-63
2023/10/10 03:05:50;;;;;;;10.25;6.25;;;;;;;;;;5070365;28;20031;-63
2023/10/10 03:08:26;;;;;;;12.45;6.13;;;;;;;;;;5070719;28;20032;-64
2023/10/10 03:11:00;;;;;;;11.25;5.88;;;;;;;;;;5070265;28;20119;-64
2023/10/10 03:13:36;;;;;;;;;;;;;;;;;;5071987;28;20110;-64
2023/10/10 03:18:55;;;;;;;9.88;6.10;;;;;;;;;;5071428;27;20078;-63
2023/10/10 03:27:00;;;;;;;13.27;6.63;;;;;;;;;;5070015;28;20604;-64
2023/10/10 03:29:36;;;;;;;12.30;5.90;;;;;;;;;;5070993;28;20031;-63
2023/10/10 03:32:19;;;;;;;10.88;6.55;;;;;;;;;;5070516;28;20503;-63
2023/10/10 03:34:55;;;;;;;10.68;5.90;;;;;;;;;;5069956;28;20034;-63
2023/10/10 03:37:40;;;;;;;9.88;6.50;;;;;;;;;;5070741;28;20028;-64
2023/10/10 05:24:51;;;;;;;18.35;9.80;;;;;;;;;;5068832;28;20106;-64
2023/10/10 05:27:29;;;;;;;11.95;8.65;;;;;;;;;;5071002;28;20118;-69
2023/10/10 05:29:55;;;;;;;16.42;10.27;;;;;;;;;;5070232;28;20138;-69
2023/10/10 05:32:22;;;;;;;19.00;10.80;;;;;;;;;;5069610;28;20101;-69
2023/10/10 05:34:52;;;;;;;18.05;11.70;;;;;;;;;;5050871;28;20042;-69
2023/10/10 05:37:18;;;;;;;15.43;10.98;;;;;;;;;;5052131;27;20380;-69
2023/10/10 05:39:46;;;;;;;18.48;11.98;;;;;;;;;;5071287;28;20154;-69
2023/10/10 05:42:20;;;;;;;17.20;11.55;;;;;;;;;;5072173;27;20821;-69
2023/10/10 05:44:47;;;;;;;22.08;13.15;;;;;;;;;;5072139;28;20059;-63
2023/10/10 05:47:13;;;;;;;25.88;14.63;;;;;;;;;;5059020;28;20039;-64
2023/10/10 05:49:39;;;;;;;19.83;13.82;;;;;;;;;;5052046;28;20032;-63
2023/10/10 05:52:06;;;;;;;22.67;14.77;;;;;;;;;;5072169;28;20039;-64
2023/10/10 05:54:33;;;;;;;22.40;14.45;;;;;;;;;;5071917;28;20043;-64
2023/10/10 05:56:59;;;;;;;21.70;15.18;;;;;;;;;;5071071;28;20036;-64
2023/10/10 05:59:28;;;;;;;24.00;15.93;;;;;;;;;;5071842;28;20028;-64
2023/10/10 06:01:54;;;;;;;24.00;16.30;;;;;;;;;;5052986;28;20116;-64
2023/10/10 06:04:21;;;;;;;24.15;16.20;;;;;;;;;;5071536;28;20174;-64
2023/10/10 06:06:47;;;;;;;25.15;17.48;;;;;;;;;;5061379;28;20046;-64
2023/10/10 06:09:18;;;;;;;29.05;17.25;;;;;;;;;;5071681;28;20028;-64
2023/10/10 06:11:45;;;;;;;26.15;18.63;;;;;;;;;;5072447;28;21005;-64
2023/10/10 06:14:11;;;;;;;28.30;19.95;;;;;;;;;;5070477;28;20036;-64
2023/10/10 06:16:38;;;;;;;28.77;19.00;;;;;;;;;;5072130;28;20032;-69
2023/10/10 06:19:04;;;;;;;29.55;20.27;;;;;;;;;;5072466;27;20048;-69
2023/10/10 06:21:30;;;;;;;32.03;20.23;;;;;;;;;;5071646;28;20036;-69
2023/10/10 06:23:57;;;;;;;29.83;20.00;;;;;;;;;;5071151;28;20036;-69
2023/10/10 06:26:24;;;;;;;29.30;19.40;;;;;;;;;;5070845;28;20047;-69
2023/10/10 06:28:53;;;;;;;35.33;20.88;;;;;;;;;;5071077;27;20044;-69
2023/10/10 06:31:20;;;;;;;32.10;20.23;;;;;;;;;;5070255;28;20035;-69
2023/10/10 06:33:49;;;;;;;36.67;20.67;;;;;;;;;;5070844;28;20036;-69
2023/10/10 06:42:27;;;;;;;27.67;18.25;;;;;;;;;;5069869;28;20036;-70
2023/10/10 06:44:54;;;;;;;29.40;18.23;;;;;;;;;;5060206;28;21821;-68
2023/10/10 06:47:13;;;;;;;30.45;18.90;;;;;;;;;;5066906;28;20039;-69
2023/10/10 06:49:54;;;;;;;30.00;18.88;;;;;;;;;;5071302;27;20340;-69
2023/10/10 06:52:23;;;;;;;25.90;17.42;;;;;;;;;;5070036;28;20107;-69
2023/10/10 06:54:55;;;;;;;24.45;17.52;;;;;;;;;;5071705;28;20556;-69
2023/10/10 06:57:38;;;;;;;26.95;18.27;;;;;;;;;;5070821;28;20672;-69
2023/10/10 07:02:41;;;;;;;31.08;18.17;;;;;;;;;;5070419;28;20287;-67
2023/10/10 07:05:15;;;;;;;24.85;17.77;;;;;;;;;;5071073;28;20027;-67
2023/10/10 07:07:41;;;;;;;35.65;18.77;;;;;;;;;;5069727;28;20109;-67
2023/10/10 07:10:09;;;;;;;29.10;17.77;;;;;;;;;;5032322;28;20032;-68
2023/10/10 07:12:38;;;;;;;24.02;17.60;;;;;;;;;;5068619;28;20038;-68
2023/10/10 07:15:06;;;;;;;26.52;18.35;;;;;;;;;;5067526;28;20115;-68
2023/10/10 07:17:32;;;;;;;29.10;18.15;;;;;;;;;;5070237;27;20023;-68
2023/10/10 07:22:33;;;;;;;21.17;15.75;;;;;;;;;;5070986;28;20041;-68
2023/10/10 07:25:07;;;;;;;25.20;16.95;;;;;;;;;;5070125;28;20763;-68
2023/10/10 07:27:32;;;;;;;;;;;;;;;;;;5070941;28;20031;-68
2023/10/10 07:29:59;;;;;;;25.95;16.75;;;;;;;;;;5069531;28;20005;-68
2023/10/10 07:32:29;;;;;;;27.02;16.95;;;;;;;;;;5068809;28;21855;-68
2023/10/10 07:34:55;;;;;;;26.30;16.40;;;;;;;;;;5068743;28;20036;-68
2023/10/10 07:37:28;;;;;;;22.88;16.38;;;;;;;;;;5068231;28;20416;-68
2023/10/10 07:40:18;;;;;;;27.40;17.80;;;;;;;;;;5066975;28;20032;-67
2023/10/10 07:42:50;;;;;;;30.50;18.65;;;;;;;;;;5068686;28;20046;-68
2023/10/10 07:45:26;;;;;;;23.50;16.85;;;;;;;;;;5066852;28;20035;-68
2023/10/10 07:50:34;;;;;;;31.90;21.33;;;;;;;;;;5070091;28;20040;-68
2023/10/10 07:53:04;;;;;;;43.42;24.58;;;;;;;;;;5070796;28;20475;-70
2023/10/10 07:55:50;;;;;;;41.65;24.30;;;;;;;;;;5072850;28;21906;-68
2023/10/10 07:58:16;;;;;;;43.80;24.70;;;;;;;;;;5075027;28;20024;-70
2023/10/10 08:00:44;;;;;;;51.50;27.90;;;;;;;;;;5075190;28;20024;-69
2023/10/10 08:03:20;;;;;;;45.97;28.70;;;;;;;;;;5075650;28;20607;-69
2023/10/10 08:05:50;;;;;;;45.15;27.20;;;;;;;;;;5075382;28;20051;-69
2023/10/10 08:08:17;;;;;;;46.63;28.88;;;;;;;;;;5063429;28;20394;-69
2023/10/10 08:10:46;;;;;;;45.72;27.20;;;;;;;;;;5075012;28;20025;-69
2023/10/10 08:13:14;;;;;;;41.42;26.60;;;;;;;;;;5074628;28;20115;-68
2023/10/10 08:21:10;;;;;;;47.85;28.63;;;;;;;;;;5074389;28;20032;-68
2023/10/10 08:23:42;;;;;;;47.70;29.13;;;;;;;;;;5074337;28;20695;-68
2023/10/10 08:26:17;;;;;;;43.58;29.52;;;;;;;;;;5073850;27;20055;-68
2023/10/10 08:28:44;;;;;;;47.78;28.98;;;;;;;;;;5075802;28;20124;-68
2023/10/10 08:31:10;;;;;;;46.58;29.85;;;;;;;;;;5074341;28;20035;-69
2023/10/10 08:33:36;;;;;;;44.75;28.35;;;;;;;;;;5074064;28;20032;-69
2023/10/10 08:36:02;;;;;;;44.35;31.77;;;;;;;;;;5074850;28;20032;-68
2023/10/10 08:38:28;;;;;;;45.22;29.98;;;;;;;;;;5074042;27;20028;-69
2023/10/10 08:41:01;;;;;;;45.67;30.17;;;;;;;;;;5073720;28;20034;-69
2023/10/10 08:43:31;;;;;;;41.58;28.65;;;;;;;;;;5073065;28;20040;-68
2023/10/10 08:45:59;;;;;;;37.95;28.20;;;;;;;;;;5073072;28;20027;-68
2023/10/10 08:48:28;;;;;;;45.80;29.77;;;;;;;;;;5073044;28;20040;-69
2023/10/10 08:51:03;;;;;;;39.72;28.90;;;;;;;;;;5073325;28;20042;-69
2023/10/10 08:53:29;;;;;;;41.10;28.65;;;;;;;;;;5052368;28;21681;-69
2023/10/10 08:55:59;;;;;;;39.53;27.88;;;;;;;;;;5072934;27;20028;-69
2023/10/10 08:58:25;;;;;;;38.88;27.55;;;;;;;;;;5072690;27;20028;-69
2023/10/10 09:00:51;;;;;;;41.70;28.60;;;;;;;;;;5072834;27;20037;-69
2023/10/10 09:03:17;;;;;;;41.13;30.10;;;;;;;;;;5072961;28;20035;-69
2023/10/10 09:05:44;;;;;;;42.03;29.85;;;;;;;;;;5072830;28;20040;-69
2023/10/10 09:08:16;;;;;;;44.90;30.92;;;;;;;;;;5071861;28;20039;-69
2023/10/10 09:10:53;;;;;;;42.72;28.90;;;;;;;;;;5072661;28;21866;-69
2023/10/10 09:13:19;;;;;;;41.60;30.17;;;;;;;;;;5073769;27;20027;-69
2023/10/10 09:15:55;;;;;;;46.92;32.28;;;;;;;;;;5072208;28;21752;-69
2023/10/10 09:18:23;;;;;;;45.58;32.55;;;;;;;;;;5072547;28;20495;-69
2023/10/10 09:20:49;;;;;;;47.97;32.92;;;;;;;;;;5072444;28;20035;-69
2023/10/10 09:23:22;;;;;;;54.47;34.13;;;;;;;;;;5072965;28;20059;-69
2023/10/10 09:25:57;;;;;;;48.40;34.05;;;;;;;;;;5073318;28;20031;-68
2023/10/10 09:28:30;;;;;;;49.60;33.22;;;;;;;;;;5072717;27;20046;-69
2023/10/10 09:31:03;;;;;;;55.97;34.22;;;;;;;;;;5038037;28;20038;-69
2023/10/10 09:33:33;;;;;;;48.15;33.65;;;;;;;;;;5072063;28;20164;-69
2023/10/10 09:36:09;;;;;;;49.70;34.25;;;;;;;;;;5072305;28;20082;-69
2023/10/10 09:38:46;;;;;;;53.33;36.33;;;;;;;;;;5073351;27;20042;-69
2023/10/10 09:57:58;;;;;;;50.67;32.47;;;;;;;;;;5071166;28;20036;-69
2023/10/10 10:00:44;;;;;;;50.28;32.85;;;;;;;;;;5069523;27;20035;-69
2023/10/10 10:06:02;;;;;;;50.65;33.08;;;;;;;;;;5070670;28;20402;-69
2023/10/10 10:08:42;;;;;;;51.30;32.63;;;;;;;;;;5070097;28;20142;-69
2023/10/10 10:11:14;;;;;;;47.83;30.85;;;;;;;;;;5071924;28;20016;-69
2023/10/10 10:13:48;;;;;;;45.83;31.00;;;;;;;;;;5072196;28;20039;-69
2023/10/10 10:16:20;;;;;;;48.47;32.10;;;;;;;;;;5072486;28;20429;-69
2023/10/10 10:18:47;;;;;;;47.88;30.75;;;;;;;;;;5071696;28;20068;-69
2023/10/10 10:21:30;;;;;;;48.67;32.00;;;;;;;;;;5072824;28;20050;-69
2023/10/10 10:24:15;;;;;;;;;;;;;;;;;;5073299;28;20647;-69
2023/10/10 10:26:43;;;;;;;45.88;30.13;;;;;;;;;;5071969;28;19915;-69
2023/10/10 10:29:22;;;;;;;44.03;31.08;;;;;;;;;;5072732;28;21155;-69
2023/10/10 10:31:50;;;;;;;53.22;33.03;;;;;;;;;;5071959;28;20530;-69
2023/10/10 10:34:32;;;;;;;48.60;30.30;;;;;;;;;;5052299;28;20016;-69
2023/10/10 10:37:19;;;;;;;45.42;28.90;;;;;;;;;;5071996;28;20032;-69
2023/10/10 10:42:34;;;;;;;46.53;30.80;;;;;;;;;;5071497;28;20061;-69
2023/10/10 10:45:23;;;;;;;42.67;29.33;;;;;;;;;;5072517;28;20140;-69
2023/10/10 10:47:56;;;;;;;44.75;29.25;;;;;;;;;;5072261;27;20094;-69
2023/10/10 10:50:40;;;;;;;39.70;28.60;;;;;;;;;;5071266;28;20054;-69
2023/10/10 10:53:08;;;;;;;;;;;;;;;;;;5071846;28;20522;-70
2023/10/10 10:55:39;;;;;;;42.42;26.48;;;;;;;;;;5071281;28;19923;-69
2023/10/10 10:58:06;;;;;;;39.00;27.45;;;;;;;;;;5071283;27;20498;-69
2023/10/10 11:00:56;;;;;;;44.90;27.95;;;;;;;;;;5071169;27;20046;-69
2023/10/10 11:03:33;;;;;;;40.60;27.02;;;;;;;;;;5070948;28;20055;-69
2023/10/10 11:06:00;;;;;;;34.38;25.38;;;;;;;;;;5069961;28;20028;-69
2023/10/10 11:16:45;;;;;;;35.70;24.65;;;;;;;;;;5071294;28;20142;-70
2023/10/10 11:21:48;;;;;;;38.17;25.67;;;;;;;;;;5070431;28;20051;-69
2023/10/10 11:24:15;;;;;;;35.28;25.08;;;;;;;;;;5070843;28;20115;-69
2023/10/10 11:26:44;;;;;;;39.47;25.08;;;;;;;;;;5070857;28;20380;-69
2023/10/10 11:29:27;;;;;;;36.53;24.88;;;;;;;;;;5070535;27;20039;-69
2023/10/10 11:32:08;;;;;;;32.50;24.80;;;;;;;;;;5067585;28;20031;-69
2023/10/10 11:34:43;;;;;;;35.83;23.08;;;;;;;;;;5071749;28;20039;-70
2023/10/10 11:37:12;;;;;;;35.88;24.10;;;;;;;;;;5071010;28;20024;-69
2023/10/10 11:39:46;;;;;;;30.45;22.83;;;;;;;;;;5052107;28;20044;-69
2023/10/10 11:42:13;;;;;;;34.08;24.42;;;;;;;;;;5070327;28;20035;-70
2023/10/10 11:44:41;;;;;;;31.77;22.90;;;;;;;;;;5070901;28;20917;-69
2023/10/10 11:47:21;;;;;;;31.00;23.08;;;;;;;;;;5069947;28;20036;-69
2023/10/10 11:49:56;;;;;;;36.20;24.25;;;;;;;;;;5070371;28;20130;-68
2023/10/10 11:52:22;;;;;;;35.55;23.83;;;;;;;;;;5069962;28;20041;-69
2023/10/10 11:54:48;;;;;;;37.38;24.60;;;;;;;;;;5071072;28;20102;-69
2023/10/10 11:57:15;;;;;;;34.15;23.55;;;;;;;;;;5070720;28;20040;-69
2023/10/10 11:59:44;;;;;;;35.22;24.73;;;;;;;;;;5070715;28;21102;-70
2023/10/10 12:02:16;;;;;;;40.53;23.83;;;;;;;;;;5069670;28;20735;-69
2023/10/10 12:04:44;;;;;;;39.17;24.92;;;;;;;;;;5070683;28;20028;-70
2023/10/10 12:07:13;;;;;;;39.65;24.80;;;;;;;;;;5069732;28;20069;-70
2023/10/10 12:09:44;;;;;;;34.00;24.73;;;;;;;;;;5069817;28;20040;-70
2023/10/10 12:12:10;;;;;;;33.03;24.10;;;;;;;;;;5070119;28;21365;-69
2023/10/10 12:14:37;;;;;;;31.40;23.70;;;;;;;;;;5069997;28;20058;-70
2023/10/10 12:17:06;;;;;;;33.75;24.20;;;;;;;;;;5068468;28;20384;-69
2023/10/10 12:19:36;;;;;;;33.25;22.95;;;;;;;;;;5069221;28;20051;-70
2023/10/10 12:22:10;;;;;;;34.55;22.30;;;;;;;;;;5066778;28;20174;-69
2023/10/10 12:24:36;;;;;;;32.97;22.23;;;;;;;;;;5067045;28;20031;-70
2023/10/10 12:27:07;;;;;;;33.92;21.90;;;;;;;;;;5069877;28;20740;-70
2023/10/10 12:29:34;;;;;;;28.92;19.45;;;;;;;;;;5070022;28;20622;-70
2023/10/10 12:32:14;;;;;;;28.60;18.83;;;;;;;;;;5050508;28;20043;-69
2023/10/10 12:34:40;;;;;;;26.00;17.65;;;;;;;;;;5051309;28;20032;-70
2023/10/10 12:37:06;;;;;;;29.17;18.88;;;;;;;;;;5067656;28;20134;-69
2023/10/10 12:39:32;;;;;;;26.48;18.67;;;;;;;;;;5068369;28;20032;-70
2023/10/10 12:41:59;;;;;;;24.50;17.50;;;;;;;;;;5070774;27;20051;-69
2023/10/10 12:44:26;;;;;;;25.10;19.63;;;;;;;;;;5072161;28;20490;-70
2023/10/10 12:46:58;;;;;;;28.58;18.65;;;;;;;;;;5072680;27;20040;-69
2023/10/10 12:49:36;;;;;;;24.33;18.08;;;;;;;;;;5074260;28;20032;-69
2023/10/10 12:52:11;;;;;;;25.90;17.85;;;;;;;;;;5070920;28;20047;-70
2023/10/10 12:54:37;;;;;;;30.35;18.35;;;;;;;;;;5071978;28;20028;-69
2023/10/10 12:57:06;;;;;;;31.13;19.65;;;;;;;;;;5073339;28;20032;-70
2023/10/10 12:59:35;;;;;;;33.25;20.20;;;;;;;;;;5072967;28;21078;-70
2023/10/10 13:02:03;;;;;;;32.88;21.10;;;;;;;;;;5072530;28;20043;-71
2023/10/10 13:04:31;;;;;;;28.25;19.30;;;;;;;;;;5054249;28;21743;-70
2023/10/10 13:07:04;;;;;;;28.05;19.15;;;;;;;;;;5071850;28;20055;-70
2023/10/10 13:09:42;;;;;;;27.50;18.10;;;;;;;;;;5072124;28;20043;-70
2023/10/10 13:12:09;;;;;;;29.67;18.35;;;;;;;;;;5071820;27;20039;-69
2023/10/10 13:14:36;;;;;;;24.80;17.67;;;;;;;;;;5072927;28;20027;-69
2023/10/10 13:19:47;;;;;;;28.98;18.20;;;;;;;;;;5069892;28;20053;-69
2023/10/10 13:22:20;;;;;;;29.70;20.10;;;;;;;;;;5066101;27;20031;-70
2023/10/10 13:24:47;;;;;;;23.83;17.77;;;;;;;;;;5066456;28;20111;-69
2023/10/10 13:27:13;;;;;;;26.83;18.15;;;;;;;;;;5068055;28;20035;-70
2023/10/10 13:29:39;;;;;;;25.80;17.17;;;;;;;;;;5068380;28;20043;-70
2023/10/10 13:32:06;;;;;;;27.80;17.58;;;;;;;;;;5067615;28;20040;-70
2023/10/10 13:34:37;;;;;;;31.38;18.75;;;;;;;;;;5067615;28;20490;-70
2023/10/10 13:37:07;;;;;;;28.30;17.55;;;;;;;;;;5068445;28;20707;-69
2023/10/10 13:39:40;;;;;;;29.20;17.05;;;;;;;;;;5068018;28;20032;-70
2023/10/10 13:42:06;;;;;;;27.30;17.45;;;;;;;;;;5068062;27;20031;-70
2023/10/10 13:44:33;;;;;;;30.02;18.65;;;;;;;;;;5067485;28;20616;-69
2023/10/10 13:47:00;;;;;;;26.38;17.83;;;;;;;;;;5067227;28;20032;-70
2023/10/10 13:49:26;;;;;;;24.85;18.42;;;;;;;;;;5069999;28;20075;-70
2023/10/10 13:51:55;;;;;;;28.52;19.75;;;;;;;;;;5053104;28;21420;-70
2023/10/10 13:54:21;;;;;;;28.42;20.15;;;;;;;;;;5061648;28;20039;-70
2023/10/10 13:56:47;;;;;;;32.63;20.48;;;;;;;;;;5071378;28;20039;-70
2023/10/10 13:59:16;;;;;;;30.38;19.92;;;;;;;;;;5073300;27;20032;-70
2023/10/10 14:01:42;;;;;;;35.83;22.67;;;;;;;;;;5071939;28;20028;-70
2023/10/10 14:04:26;;;;;;;30.48;21.42;;;;;;;;;;5071634;28;21736;-70
2023/10/10 14:06:54;;;;;;;33.20;20.38;;;;;;;;;;5071942;28;20030;-70
2023/10/10 14:09:25;;;;;;;32.58;21.88;;;;;;;;;;5071349;28;20043;-70
2023/10/10 14:11:52;;;;;;;33.72;22.42;;;;;;;;;;5070576;28;20043;-69
2023/10/10 14:14:19;;;;;;;32.20;23.60;;;;;;;;;;5051686;28;20033;-70
2023/10/10 14:16:45;;;;;;;34.30;22.83;;;;;;;;;;5071528;27;20024;-70
2023/10/10 14:19:11;;;;;;;33.70;21.70;;;;;;;;;;5070788;28;20075;-69
2023/10/10 14:21:38;;;;;;;28.13;20.45;;;;;;;;;;5071836;28;21785;-70
2023/10/10 14:24:07;;;;;;;33.63;20.92;;;;;;;;;;5070621;28;20028;-70
2023/10/10 14:26:36;;;;;;;30.60;21.27;;;;;;;;;;5072155;28;20043;-70
2023/10/10 14:29:06;;;;;;;32.95;20.65;;;;;;;;;;5071900;27;20042;-70
2023/10/10 14:31:32;;;;;;;32.28;20.60;;;;;;;;;;5072055;28;20032;-70
2023/10/10 14:34:00;;;;;;;30.45;20.98;;;;;;;;;;5068705;28;20391;-70
2023/10/10 14:36:27;;;;;;;34.35;22.15;;;;;;;;;;5070938;28;20024;-69
2023/10/10 14:38:53;;;;;;;35.00;21.92;;;;;;;;;;5071462;28;20509;-70
2023/10/10 14:41:20;;;;;;;33.90;21.77;;;;;;;;;;5071371;28;21358;-70
2023/10/10 14:43:50;;;;;;;28.88;20.15;;;;;;;;;;5071191;28;21156;-70
2023/10/10 14:46:22;;;;;;;31.77;21.58;;;;;;;;;;5070106;28;20116;-70
2023/10/10 14:48:49;;;;;;;36.22;22.52;;;;;;;;;;5071929;28;20126;-69
2023/10/10 14:51:20;;;;;;;34.58;22.67;;;;;;;;;;5071003;28;20028;-70
2023/10/10 14:53:53;;;;;;;31.08;22.10;;;;;;;;;;5070954;28;20618;-70
2023/10/10 14:56:24;;;;;;;30.05;22.08;;;;;;;;;;5068481;28;20111;-70
2023/10/10 14:58:50;;;;;;;32.53;22.17;;;;;;;;;;5069219;28;20032;-69
2023/10/10 15:01:20;;;;;;;31.23;21.98;;;;;;;;;;5068940;28;20035;-70
2023/10/10 15:03:47;;;;;;;32.88;22.20;;;;;;;;;;5069137;28;20168;-70
2023/10/10 15:06:16;;;;;;;35.55;21.10;;;;;;;;;;5068675;27;20104;-70
2023/10/10 15:08:43;;;;;;;34.88;19.65;;;;;;;;;;5070363;28;20044;-70
2023/10/10 15:11:11;;;;;;;32.10;20.90;;;;;;;;;;5069818;28;20479;-70
2023/10/10 15:13:41;;;;;;;31.85;21.98;;;;;;;;;;5070629;28;20106;-70
2023/10/10 15:16:10;;;;;;;30.63;21.80;;;;;;;;;;5070554;28;20028;-69
2023/10/10 15:18:41;;;;;;;30.75;20.73;;;;;;;;;;5069994;28;20051;-70
2023/10/10 15:21:07;;;;;;;26.73;21.15;;;;;;;;;;5070141;28;21976;-70
2023/10/10 15:23:33;;;;;;;32.80;21.02;;;;;;;;;;5068669;28;20116;-70
2023/10/10 15:26:05;;;;;;;36.25;22.30;;;;;;;;;;5068293;28;20684;-70
2023/10/10 15:28:31;;;;;;;31.02;21.58;;;;;;;;;;5070387;28;20045;-70
2023/10/10 15:30:57;;;;;;;35.17;21.63;;;;;;;;;;5070163;28;20042;-69
2023/10/10 15:33:25;;;;;;;30.02;20.00;;;;;;;;;;5069858;28;20043;-70
2023/10/10 15:35:54;;;;;;;30.98;20.52;;;;;;;;;;5071206;28;20072;-70
2023/10/10 15:38:22;;;;;;;29.38;20.75;;;;;;;;;;5070711;28;20111;-70
2023/10/10 15:40:49;;;;;;;27.80;20.35;;;;;;;;;;5070699;28;20032;-69
2023/10/10 15:43:15;;;;;;;33.35;22.10;;;;;;;;;;5071962;28;20067;-70
2023/10/10 15:45:44;;;;;;;33.13;19.90;;;;;;;;;;5051519;28;20476;-70
2023/10/10 15:48:24;;;;;;;31.70;20.45;;;;;;;;;;5071215;28;20039;-70
2023/10/10 15:50:51;;;;;;;29.95;21.25;;;;;;;;;;5069908;28;20028;-70
2023/10/10 15:53:18;;;;;;;30.50;20.10;;;;;;;;;;5071661;28;20062;-70
2023/10/10 15:55:44;;;;;;;32.50;20.23;;;;;;;;;;5076102;28;20055;-70
2023/10/10 15:58:10;;;;;;;33.10;20.60;;;;;;;;;;5076217;28;20035;-70
2023/10/10 16:00:38;;;;;;;27.42;19.92;;;;;;;;;;5076983;28;20032;-70
2023/10/10 16:03:07;;;;;;;27.27;18.80;;;;;;;;;;5077917;28;21037;-69
2023/10/10 16:05:42;;;;;;;28.02;19.77;;;;;;;;;;5077584;28;20036;-70
2023/10/10 16:08:08;;;;;;;27.85;20.35;;;;;;;;;;5078147;28;20144;-70
2023/10/10 16:10:34;;;;;;;28.92;20.15;;;;;;;;;;5076838;28;20036;-70
2023/10/10 16:13:01;;;;;;;29.48;20.05;;;;;;;;;;5077224;28;20051;-70
2023/10/10 16:15:27;;;;;;;27.90;18.98;;;;;;;;;;5077487;28;20032;-69
2023/10/10 16:17:54;;;;;;;25.92;19.15;;;;;;;;;;5080041;28;20116;-69
2023/10/10 16:20:22;;;;;;;25.52;18.45;;;;;;;;;;5076302;28;20116;-70
2023/10/10 16:22:48;;;;;;;27.65;20.13;;;;;;;;;;5072965;28;20055;-70
2023/10/10 16:25:15;;;;;;;27.73;19.02;;;;;;;;;;5073690;28;20038;-69
2023/10/10 16:27:41;;;;;;;31.48;21.13;;;;;;;;;;5073280;28;20035;-70
2023/10/10 16:30:08;;;;;;;27.63;18.70;;;;;;;;;;5053034;28;20039;-70
2023/10/10 16:32:39;;;;;;;25.77;18.38;;;;;;;;;;5076042;28;20034;-70
2023/10/10 16:35:06;;;;;;;27.30;18.73;;;;;;;;;;5080788;28;20105;-70
2023/10/10 16:37:36;;;;;;;27.27;18.30;;;;;;;;;;5061944;28;20109;-70
2023/10/10 16:40:04;;;;;;;31.10;18.52;;;;;;;;;;5080176;28;20056;-70
2023/10/10 16:42:30;;;;;;;27.20;17.48;;;;;;;;;;5081291;28;20032;-70
2023/10/10 16:44:56;;;;;;;24.20;16.75;;;;;;;;;;5079965;28;20024;-70
2023/10/10 16:47:22;;;;;;;25.10;17.27;;;;;;;;;;5060921;28;20042;-70
2023/10/10 16:49:49;;;;;;;23.25;15.48;;;;;;;;;;5081050;28;21043;-69
2023/10/10 16:52:15;;;;;;;23.70;16.27;;;;;;;;;;5079640;28;20047;-69
2023/10/10 16:54:50;;;;;;;24.10;17.48;;;;;;;;;;5081032;28;20027;-69
2023/10/10 16:57:16;;;;;;;23.13;16.13;;;;;;;;;;5079930;28;20135;-70
2023/10/10 16:59:45;;;;;;;23.52;16.67;;;;;;;;;;5080239;28;20059;-70
2023/10/10 17:02:11;;;;;;;25.13;16.40;;;;;;;;;;5080288;28;20816;-70
2023/10/10 17:04:37;;;;;;;21.60;14.98;;;;;;;;;;5080326;28;20040;-69
2023/10/10 17:07:04;;;;;;;24.05;16.00;;;;;;;;;;5080849;28;20035;-70
2023/10/10 17:09:35;;;;;;;25.05;16.23;;;;;;;;;;5080093;28;20043;-70
2023/10/10 17:12:05;;;;;;;23.63;15.80;;;;;;;;;;5078847;28;20051;-70
2023/10/10 17:14:31;;;;;;;27.00;15.95;;;;;;;;;;5079829;28;20036;-69
2023/10/10 17:16:57;;;;;;;24.23;15.80;;;;;;;;;;5079630;28;20026;-70
2023/10/10 17:19:23;;;;;;;21.55;14.95;;;;;;;;;;5079717;28;20067;-70
2023/10/10 17:21:49;;;;;;;21.73;14.93;;;;;;;;;;5079513;28;21858;-70
2023/10/10 17:24:18;;;;;;;24.88;16.63;;;;;;;;;;5079980;28;20950;-69
2023/10/10 17:26:44;;;;;;;24.05;15.38;;;;;;;;;;5078674;28;20032;-70
2023/10/10 17:29:13;;;;;;;23.92;15.95;;;;;;;;;;5080578;28;20028;-69
2023/10/10 17:31:40;;;;;;;25.02;15.77;;;;;;;;;;5079854;28;20093;-70
2023/10/10 17:34:06;;;;;;;22.30;15.30;;;;;;;;;;5080689;28;20031;-70
2023/10/10 17:36:32;;;;;;;24.52;15.30;;;;;;;;;;5079869;28;20035;-69
2023/10/10 17:39:00;;;;;;;26.13;16.05;;;;;;;;;;5080402;28;20851;-69
2023/10/10 17:41:26;;;;;;;25.70;16.08;;;;;;;;;;5080819;28;20020;-70
2023/10/10 17:43:53;;;;;;;23.38;15.43;;;;;;;;;;5079725;28;20043;-69
2023/10/10 17:46:22;;;;;;;23.30;15.80;;;;;;;;;;5080361;28;20059;-69